8e Meeting de Natation Lille Métropole Natation

Compétition Nationale

LILLE

Du Vendredi 15 Janvier 2016 au Dimanche 17 Janvier 2016

Bassin de 50m

50 Nage Libre Dames

Finale A

Nom Année Temps Pts Club Pays
1 REMY Adeline 2000 0:27:87 1187 STADE BÉTHUNE PÉLICAN CLUB FRA
2 KERKENI Sonia 1998 0:28:13 1170 ST-AMAND NAT PORTE DU HAINAUT FRA
3 VERDIER Manon 2001 0:28:17 1167 MARCQ NATATION FRA
4 AVET Leonie 2001 0:28:53 1144 CN BERRE MIXTES FRA
5 GRANDIDIER Estee 1999 0:28:54 1143 LILLE MÉTROPOLE NATATION FRA
6 DELOBEL Mélaine 1998 0:28:65 1136 SO ARMENTIÈRES FRA
7 DEPAUW Carla 1999 0:28:92 1119 DUNKERQUE NATATION FRA
8 LAGNEAU Angélina 2000 0:29:32 1093 CN FOURMIES FRA

Finale B

Nom Année Temps Pts Club Pays
1 HODONOU Agathe 2002 0:28:84 1124 US ST-ANDRÉ FRA
2 VANDENBROUCKE Bo 2001 0:29:02 1112 CN BERRE MIXTES FRA
3 COCHETEUX Emma 2001 0:29:07 1109 DUNKERQUE NATATION FRA
4 HERMAN Lara 2000 0:29:37 1090 CN BERRE MIXTES FRA
5 LEPERS Julia 2001 0:29:41 1088 DAUPHINS WATTRELOS FRA
6 NOGE Lisa 1996 0:29:43 1087 LILLE UC NATATION FRA
7 HOUZET Clarisse 2000 0:29:47 1084 LILLE MÉTROPOLE NATATION FRA
8 MAKOUALA Alizee 2001 0:29:68 1071 AVAN VILLENEUVE-D'ASCQ FRA

Finale C

Nom Année Temps Pts Club Pays
1 SABBE Julie 1996 0:29:94 1055 MARCQ NATATION FRA
2 PONTEUR Ellen 1999 0:30:05 1048 CN BERRE MIXTES FRA
3 SIX Claire 2002 0:30:10 1045 DUNKERQUE NATATION FRA
4 MERLEVEDE Louise 1999 0:30:16 1041 DUNKERQUE NATATION FRA
5 PROOT Adéle 2000 0:30:27 1034 SO ARMENTIÈRES FRA
6 LEQUIEN Constance 2000 0:30:31 1032 ST-AMAND NAT PORTE DU HAINAUT FRA
7 DANDOIS Emma 1999 0:30:46 1023 MARCQ NATATION FRA
8 VAN HYFTE Isaura 1999 0:31:13 982 CN BERRE MIXTES FRA

Séries

Nom Année Temps Pts Club Pays
1 REMY Adeline 2000 0:28:16 1168 STADE BÉTHUNE PÉLICAN CLUB FRA
2 VERDIER Manon 2001 0:28:43 1150 MARCQ NATATION FRA
3 GRANDIDIER Estee 1999 0:28:47 1148 LILLE MÉTROPOLE NATATION FRA
4 KERKENI Sonia 1998 0:28:56 1142 ST-AMAND NAT PORTE DU HAINAUT FRA
5 DELOBEL Mélaine 1998 0:28:76 1129 SO ARMENTIÈRES FRA
6 AVET Leonie 2001 0:28:83 1125 CN BERRE MIXTES FRA
7 LAGNEAU Angélina 2000 0:28:95 1117 CN FOURMIES FRA
8 DEPAUW Carla 1999 0:29:06 1110 DUNKERQUE NATATION FRA
9 VANDENBROUCKE Bo 2001 0:29:07 1109 CN BERRE MIXTES FRA
10 COCHETEUX Emma 2001 0:29:07 1109 DUNKERQUE NATATION FRA
11 HODONOU Agathe 2002 0:29:21 1100 US ST-ANDRÉ FRA
12 MAKOUALA Alizee 2001 0:29:27 1097 AVAN VILLENEUVE-D'ASCQ FRA
13 LEFAIRE Manon 1997 0:29:39 1089 SN LENS FRA
14 LEPERS Julia 2001 0:29:47 1084 DAUPHINS WATTRELOS FRA
15 HERMAN Lara 2000 0:29:61 1075 CN BERRE MIXTES FRA
16 HOUZET Clarisse 2000 0:29:71 1069 LILLE MÉTROPOLE NATATION FRA
17 NOGE Lisa 1996 0:29:78 1065 LILLE UC NATATION FRA
18 VAN HYFTE Isaura 1999 0:29:79 1064 CN BERRE MIXTES FRA
19 BUGGENHOUT Niki 2000 0:29:82 1062 DENAIN NAT. PORTE DU HAINAUT FRA
20 SABBE Julie 1996 0:29:85 1060 MARCQ NATATION FRA
21 PONTEUR Ellen 1999 0:29:95 1054 CN BERRE MIXTES FRA
22 MERLEVEDE Louise 1999 0:29:97 1053 DUNKERQUE NATATION FRA
23 LEQUIEN Constance 2000 0:29:98 1052 ST-AMAND NAT PORTE DU HAINAUT FRA
24 SIX Claire 2002 0:29:98 1052 DUNKERQUE NATATION FRA
25 DUPRE Julie 2001 0:29:99 1052 MARCQ NATATION FRA
26 BERTOUT Leonie 1998 0:30:03 1049 LILLE UC NATATION FRA
27 PROOT Adéle 2000 0:30:12 1044 SO ARMENTIÈRES FRA
28 DANDOIS Emma 1999 0:30:21 1038 MARCQ NATATION FRA
29 HAMDINI Ryma 2001 0:30:24 1036 LILLE MÉTROPOLE NATATION FRA
30 DECAESTECKER Febe 1999 0:30:27 1034 CN BERRE MIXTES FRA
31 VILLAYES Marine 1997 0:30:56 1017 CN CAMBRAI FRA
32 DUBOIS Louise 1999 0:30:58 1015 SECLIN NATATION FRA
33 LOQUET Kelly 1996 0:30:61 1014 CN COURRIÈRES FRA
34 DUTERRAGE Izia 1992 0:30:67 1010 ST-AMAND NAT PORTE DU HAINAUT FRA
35 DEVRED Eugenie 1997 0:30:77 1004 MARCQ NATATION FRA
36 GADROUZ Lea 2002 0:30:81 1002 DUNKERQUE NATATION FRA
37 DAMIE Josephine 1998 0:30:86 999 US ST-ANDRÉ FRA
38 TOUSSIROT Émilie 2001 0:30:90 996 AAE PÉRONNE FRA
39 ZAJAC Margot 2001 0:31:03 988 STADE BÉTHUNE PÉLICAN CLUB FRA
40 PETIT Marion 2002 0:31:06 987 DUNKERQUE NATATION FRA
41 KACZOROWSKI Emma 1998 0:31:14 982 US ST-ANDRÉ FRA
42 VANDERSLUYS Léa 2002 0:31:18 979 DUNKERQUE NATATION FRA
43 BERTHIER Laura 2000 0:31:20 978 ST-AMAND NAT PORTE DU HAINAUT FRA
44 BIKARD Jade 2000 0:31:21 978 LILLE UC NATATION FRA
45 JOUHANNEAU Charlotte 2001 0:31:24 976 DAUPHINS WATTRELOS FRA
46 SABBE Sarah 2001 0:31:25 975 CN BERRE MIXTES FRA
47 RAMBUR Alizé 1995 0:31:36 969 GRAVELINES NATATION FRA
48 PLADYS Joanne 2001 0:31:38 967 DUNKERQUE NATATION FRA
49 DEPRET Amelie 1999 0:31:38 967 ENC ACHICOURT FRA
50 VANDECASTEELE Marie 1998 0:31:47 962 LILLE UC NATATION FRA
51 BOCKLAND Majlen 1999 0:31:65 952 CN BERRE MIXTES FRA
52 GEORGES Delphine 2002 0:31:68 950 LILLE UC NATATION FRA
53 LUX Angéline 2001 0:31:75 946 CN COURRIÈRES FRA
54 MOREIRA Julia 2001 0:31:91 936 US ST-ANDRÉ FRA
55 CAPELLE Cassandre 1999 0:31:92 936 ENC ACHICOURT FRA
56 GIANNUZZO Ornella 2001 0:32:06 928 MARCQ NATATION FRA
57 MARTIN Camille 1999 0:32:12 924 SN LENS FRA
58 DEPAUW Marinne 2001 0:32:19 920 ST-AMAND NAT PORTE DU HAINAUT FRA
59 MARCHAND Sofia 2002 0:32:21 919 PROVINS NATATION FRA
60 LESAGE Amelie 1999 0:32:22 918 SECLIN NATATION FRA
61 LIEBERT Meline 2002 0:32:25 917 CN FOURMIES FRA
62 MAREZ Marie 2000 0:32:41 907 PROVINS NATATION FRA
63 LIAGRE Marielou 1999 0:32:46 904 DAUPHINS WATTRELOS FRA
64 JURKIW Clarisse 2000 0:32:47 904 SO ARMENTIÈRES FRA
65 ORUBA Marine 2002 0:32:57 898 STADE BÉTHUNE PÉLICAN CLUB FRA
66 DESFONTAINES Julie 2001 0:32:60 896 STADE BÉTHUNE PÉLICAN CLUB FRA
67 DRIS Souad 2001 0:32:64 894 LILLE UC NATATION FRA
68 NOUCHET Alexandra 1998 0:32:65 894 DUNKERQUE NATATION FRA
69 MOTURY Juliette 2000 0:32:68 892 MARCQ NATATION FRA
70 PAJAK Paige 2002 0:32:72 890 AAE PÉRONNE FRA
71 NOTEBAERT Elsa 2001 0:32:72 890 SN LENS FRA
72 NORMAND Cecile 2002 0:32:73 889 ST-POL-SUR-MER NATATION FRA
73 MASSELOT Flore 2002 0:32:82 884 AAE PÉRONNE FRA
74 VANDEWALLE Lea 2002 0:33:02 873 CN CAMBRAI FRA
75 LANGLET Maureen 1998 0:33:04 872 GRAVELINES NATATION FRA
76 MARTIN Solene 2002 0:33:10 868 SO ARMENTIÈRES FRA
77 ROQUETTE Philippine 1999 0:33:13 866 US ST-ANDRÉ FRA
78 DELANNOY Justine 1998 0:33:15 865 ST-AMAND NAT PORTE DU HAINAUT FRA
79 JUBERT Lisa 2002 0:33:30 857 CN CAMBRAI FRA
80 VERDIERE Suson 2002 0:33:45 849 SECLIN NATATION FRA
81 DELAHAYE Valentine 2002 0:33:47 847 AAE PÉRONNE FRA
82 BÉCLIN Laura 1997 0:33:62 839 GRAVELINES NATATION FRA
83 BOURON Perrine 2000 0:33:67 836 PROVINS NATATION FRA
84 MARTIN-GARRIN Yoline 2002 0:33:70 835 STADE BÉTHUNE PÉLICAN CLUB FRA
85 CLOT Natacha 2001 0:33:77 831 US ST-ANDRÉ FRA
86 SABBE Lily 2000 0:33:91 823 MARCQ NATATION FRA
87 BARBEZ Elise 2002 0:34:95 767 US ST-ANDRÉ FRA
88 GOSSELIN Beverley 2001 0:38:69 583 ST-POL-SUR-MER NATATION FRA
89 MARTINS Nathalie 1966 0:39:16 561 US ST-ANDRÉ FRA
SAINT-AMAND NATATION PORTE DU HAINAUT